createdAt,value
2022-11-01T00:01:58.055Z,77145.09
2022-11-01T00:04:25.024Z,77147.09
2022-11-01T00:06:51.594Z,77129.19
2022-11-01T00:09:18.493Z,77121.25
2022-11-01T00:11:46.230Z,77103.38
2022-11-01T00:14:14.144Z,77087.47
2022-11-01T00:16:40.723Z,77063.63
2022-11-01T00:19:07.207Z,77069.56
2022-11-01T00:21:33.734Z,77065.59
2022-11-01T00:24:00.202Z,77081.50
2022-11-01T00:26:26.777Z,77089.44
2022-11-01T00:28:54.055Z,77093.44
2022-11-01T00:31:21.234Z,77069.56
2022-11-01T00:33:47.886Z,77063.63
2022-11-01T00:36:14.869Z,77069.56
2022-11-01T00:38:41.573Z,77075.53
2022-11-01T00:41:08.483Z,77071.56
2022-11-01T00:43:36.456Z,77069.56
2022-11-01T00:46:04.369Z,77079.50
2022-11-01T00:48:31.442Z,77079.50
2022-11-01T00:50:58.037Z,77083.50
2022-11-01T00:53:24.557Z,77087.47
2022-11-01T00:55:51.048Z,77095.41
2022-11-01T00:58:17.750Z,77109.31
2022-11-01T01:00:44.314Z,77119.25
2022-11-01T01:03:10.909Z,77117.28
2022-11-01T01:05:37.382Z,77105.34
2022-11-01T01:08:04.248Z,77111.31
2022-11-01T01:10:30.955Z,77107.34
2022-11-01T01:12:57.634Z,77105.34
2022-11-01T01:15:24.173Z,77075.53
2022-11-01T01:17:50.638Z,77065.59
2022-11-01T01:20:17.174Z,77061.63
2022-11-01T01:22:43.759Z,77059.63
2022-11-01T01:25:10.830Z,77039.75
2022-11-01T01:27:37.730Z,77039.75
2022-11-01T01:30:07.639Z,77017.91
2022-11-01T01:32:34.765Z,77021.88
2022-11-01T01:35:01.481Z,77011.94
2022-11-01T01:37:28.070Z,77015.91
2022-11-01T01:39:54.598Z,77021.88
2022-11-01T01:42:30.614Z,77019.88
2022-11-01T01:44:57.043Z,77025.84
2022-11-01T01:47:23.446Z,77031.81
2022-11-01T01:52:28.708Z,77043.75
2022-11-01T01:54:55.702Z,77041.75
2022-11-01T01:57:22.263Z,77069.56
2022-11-01T01:59:48.791Z,77073.56
2022-11-01T02:02:17.194Z,77077.53
2022-11-01T02:04:53.086Z,77071.56
2022-11-01T02:07:19.587Z,77069.56
2022-11-01T02:09:46.418Z,77057.66
2022-11-01T02:12:14.415Z,77059.63
2022-11-01T02:14:43.301Z,77041.75
2022-11-01T02:17:41.458Z,77065.59
2022-11-01T02:20:43.063Z,77055.66
2022-11-01T02:23:51.493Z,77053.69
2022-11-01T02:26:30.278Z,77071.56
2022-11-01T02:29:03.149Z,77061.63
2022-11-01T02:32:00.621Z,77029.81
2022-11-01T02:34:41.951Z,77043.75
2022-11-01T02:37:18.358Z,77063.63
2022-11-01T02:39:52.613Z,77069.56
2022-11-01T02:42:25.961Z,77071.56
2022-11-01T02:45:03.278Z,77079.50
2022-11-01T02:47:32.704Z,77083.50
2022-11-01T02:50:03.105Z,77055.66
2022-11-01T02:52:34.212Z,77061.63
2022-11-01T02:55:27.106Z,77075.53
2022-11-01T02:57:55.088Z,77085.47
2022-11-01T03:00:25.999Z,77105.34
2022-11-01T03:03:28.494Z,77107.34
2022-11-01T03:06:01.006Z,77115.28
2022-11-01T03:08:42.098Z,77117.28
2022-11-01T03:11:08.476Z,77101.38
2022-11-01T03:13:44.088Z,77103.38
2022-11-01T03:16:17.308Z,77105.34
2022-11-01T03:19:25.727Z,77073.56
2022-11-01T03:21:59.308Z,77083.50
2022-11-01T03:24:40.610Z,77073.56
2022-11-01T03:27:19.335Z,77097.41
2022-11-01T03:29:56.396Z,77111.31
2022-11-01T03:32:27.442Z,77119.25
2022-11-01T03:34:55.311Z,77123.25
2022-11-01T03:37:22.559Z,77119.25
2022-11-01T03:39:52.030Z,77113.31
2022-11-01T03:42:23.487Z,77119.25
2022-11-01T03:44:56.022Z,77125.22
2022-11-01T03:47:22.572Z,77121.25
2022-11-01T03:50:19.738Z,77101.38
2022-11-01T03:52:46.894Z,77097.41
2022-11-01T03:55:18.512Z,77103.38
2022-11-01T03:58:00.147Z,77113.31
2022-11-01T04:00:33.510Z,77125.22
2022-11-01T04:03:00.925Z,77111.31
2022-11-01T04:05:30.115Z,77113.31
2022-11-01T04:07:56.604Z,77121.25
2022-11-01T04:10:24.857Z,77127.22
2022-11-01T04:12:52.210Z,77123.25
2022-11-01T04:15:38.935Z,77127.22
2022-11-01T04:18:31.827Z,77129.19
2022-11-01T04:20:58.823Z,77127.22
2022-11-01T04:23:25.318Z,77129.19
2022-11-01T04:25:51.869Z,77145.09
2022-11-01T04:28:18.452Z,77145.09
2022-11-01T04:30:45.062Z,77145.09
2022-11-01T04:33:11.594Z,77139.13
2022-11-01T04:35:38.479Z,77135.16
2022-11-01T04:38:06.536Z,77141.13
2022-11-01T04:40:34.369Z,77143.13
2022-11-01T04:43:01.350Z,77137.16
2022-11-01T04:45:28.195Z,77131.19
2022-11-01T04:48:03.293Z,77131.19
2022-11-01T04:50:30.242Z,77137.16
2022-11-01T04:52:58.673Z,77127.22
2022-11-01T04:55:26.376Z,77119.25
2022-11-01T04:57:52.873Z,77129.19
2022-11-01T05:00:19.524Z,77135.16
2022-11-01T05:02:45.960Z,77135.16
2022-11-01T05:05:12.827Z,77131.19
2022-11-01T05:07:39.574Z,77131.19
2022-11-01T05:10:07.494Z,77127.22
2022-11-01T05:12:33.968Z,77129.19
2022-11-01T05:15:00.438Z,77113.31
2022-11-01T05:17:26.936Z,77123.25
2022-11-01T05:19:53.414Z,77129.19
2022-11-01T05:22:19.837Z,77133.19
2022-11-01T05:24:46.356Z,77139.13
2022-11-01T05:27:12.847Z,77139.13
2022-11-01T05:29:39.378Z,77147.09
2022-11-01T05:32:05.930Z,77139.13
2022-11-01T05:34:32.502Z,77139.13
2022-11-01T05:36:59.014Z,77127.22
2022-11-01T05:39:25.505Z,77121.25
2022-11-01T05:41:51.966Z,77127.22
2022-11-01T05:44:18.394Z,77139.13
2022-11-01T05:46:44.857Z,77143.13
2022-11-01T05:49:11.301Z,77153.06
2022-11-01T05:51:39.211Z,77143.13
2022-11-01T05:54:05.828Z,77133.19
2022-11-01T05:56:32.268Z,77143.13
2022-11-01T05:58:58.770Z,77159.00
2022-11-01T06:01:25.914Z,77157.03
2022-11-01T06:03:52.470Z,77155.03
2022-11-01T06:06:18.977Z,77155.03
2022-11-01T06:08:45.446Z,77151.06
2022-11-01T06:11:12.480Z,77151.06
2022-11-01T06:13:39.050Z,77153.06
2022-11-01T06:16:06.375Z,77143.13
2022-11-01T06:18:34.913Z,77135.16
2022-11-01T06:21:01.480Z,77133.19
2022-11-01T06:23:27.985Z,77111.31
2022-11-01T06:26:04.734Z,77115.28
2022-11-01T06:28:31.241Z,77105.34
2022-11-01T06:31:02.683Z,77095.41
2022-11-01T06:33:30.191Z,77075.53
2022-11-01T06:35:56.755Z,77087.47
2022-11-01T06:38:23.610Z,77085.47
2022-11-01T06:40:50.098Z,77077.53
2022-11-01T06:43:16.587Z,77069.56
2022-11-01T06:45:43.760Z,77069.56
2022-11-01T06:48:10.457Z,77057.66
2022-11-01T06:50:37.151Z,77051.69
2022-11-01T06:53:03.976Z,77053.69
2022-11-01T06:55:30.849Z,77029.81
2022-11-01T06:57:59.873Z,77009.94
2022-11-01T07:00:28.658Z,77015.91
2022-11-01T07:03:00.421Z,77009.94
2022-11-01T07:05:30.376Z,77011.94
2022-11-01T07:08:01.426Z,77000.00
2022-11-01T07:10:29.167Z,77004.00
2022-11-01T07:13:04.292Z,77015.91
2022-11-01T07:15:31.214Z,77007.97
2022-11-01T07:17:59.545Z,77009.94
2022-11-01T07:20:27.444Z,76992.06
2022-11-01T07:23:05.903Z,77000.00
2022-11-01T07:25:33.300Z,77000.00
2022-11-01T07:27:59.956Z,77011.94
2022-11-01T07:30:28.011Z,77015.91
2022-11-01T07:32:56.386Z,77029.81
2022-11-01T07:35:23.459Z,77023.88
2022-11-01T07:37:50.006Z,77005.97
2022-11-01T07:40:17.108Z,77002.00
2022-11-01T07:42:45.106Z,76996.03
2022-11-01T07:45:13.496Z,77000.00
2022-11-01T07:47:40.251Z,76984.13
2022-11-01T07:50:07.378Z,76966.22
2022-11-01T07:52:33.978Z,76938.41
2022-11-01T07:55:00.518Z,76946.34
2022-11-01T07:57:27.181Z,76972.19
2022-11-01T07:59:53.692Z,76960.25
2022-11-01T08:02:20.335Z,76972.19
2022-11-01T08:04:46.954Z,76960.25
2022-11-01T08:07:13.460Z,76952.31
2022-11-01T08:09:40.081Z,76954.31
2022-11-01T08:12:06.891Z,76980.13
2022-11-01T08:14:33.310Z,76960.25
2022-11-01T08:17:01.873Z,76956.28
2022-11-01T08:19:28.535Z,76958.28
2022-11-01T08:21:58.440Z,76938.41
2022-11-01T08:24:24.991Z,76932.44
2022-11-01T08:26:52.655Z,76928.47
2022-11-01T08:29:19.795Z,76920.53
2022-11-01T08:31:47.523Z,76898.66
2022-11-01T08:34:16.902Z,76884.75
2022-11-01T08:36:43.697Z,76854.94
2022-11-01T08:41:41.802Z,76815.19
2022-11-01T08:44:08.321Z,76797.31
2022-11-01T08:46:34.814Z,76777.44
2022-11-01T08:49:01.291Z,76765.50
2022-11-01T08:51:27.886Z,76757.56
2022-11-01T08:53:57.634Z,76741.66
2022-11-01T08:56:27.793Z,76735.69
2022-11-01T08:58:55.458Z,76717.81
2022-11-01T09:04:16.330Z,76725.75
2022-11-01T09:06:43.629Z,76713.84
2022-11-01T09:09:12.750Z,76703.91
2022-11-01T09:11:39.523Z,76697.94
2022-11-01T09:14:06.050Z,76693.97
2022-11-01T09:16:33.220Z,76699.94
2022-11-01T09:19:01.767Z,76691.97
2022-11-01T09:21:31.801Z,76699.94
2022-11-01T09:23:59.218Z,76670.13
2022-11-01T09:26:28.590Z,76660.19
2022-11-01T09:28:58.347Z,76646.28
2022-11-01T09:31:24.887Z,76656.22
2022-11-01T09:33:54.149Z,76640.31
2022-11-01T09:36:21.237Z,76630.38
2022-11-01T09:38:47.699Z,76612.50
2022-11-01T09:41:55.721Z,76602.56
2022-11-01T09:44:34.018Z,76592.63
2022-11-01T09:47:07.945Z,76586.66
2022-11-01T09:49:41.506Z,76586.66
2022-11-01T09:52:18.407Z,76582.69
2022-11-01T09:54:44.991Z,76582.69
2022-11-01T09:57:40.640Z,76574.72
2022-11-01T10:00:07.628Z,76578.72
2022-11-01T10:02:58.214Z,76558.84
2022-11-01T10:05:48.484Z,76558.84
2022-11-01T10:08:34.154Z,76538.97
2022-11-01T10:11:36.116Z,76548.91
2022-11-01T10:14:16.258Z,76542.94
2022-11-01T10:17:04.905Z,76513.13
2022-11-01T10:19:33.972Z,76511.16
2022-11-01T10:22:06.830Z,76497.22
2022-11-01T10:24:57.601Z,76483.31
2022-11-01T10:27:43.005Z,76475.38
2022-11-01T10:30:16.144Z,76459.47
2022-11-01T10:33:02.525Z,76439.59
2022-11-01T10:35:34.998Z,76433.66
2022-11-01T10:38:38.067Z,76421.72
2022-11-01T10:41:15.789Z,76419.72
2022-11-01T10:43:47.482Z,76391.91
2022-11-01T10:46:19.853Z,76380.00
2022-11-01T10:48:55.319Z,76372.03
2022-11-01T10:51:27.778Z,76360.13
2022-11-01T10:54:00.480Z,76342.25
2022-11-01T10:56:37.266Z,76342.25
2022-11-01T10:59:09.987Z,76320.38
2022-11-01T11:01:42.532Z,76318.41
2022-11-01T11:04:14.416Z,76326.34
2022-11-01T11:06:44.136Z,76308.47
2022-11-01T11:09:37.355Z,76316.41
2022-11-01T11:12:09.809Z,76292.56
2022-11-01T11:14:37.629Z,76282.63
2022-11-01T11:17:39.488Z,76298.53
2022-11-01T11:20:12.978Z,76310.44
2022-11-01T11:22:42.852Z,76346.22
2022-11-01T11:25:17.808Z,76368.06
2022-11-01T11:27:47.678Z,76380.00
2022-11-01T11:30:30.173Z,76393.91
2022-11-01T11:32:58.634Z,76403.84
2022-11-01T11:35:28.382Z,76411.78
2022-11-01T11:38:05.002Z,76401.84
2022-11-01T11:40:41.146Z,76387.94
2022-11-01T11:43:33.740Z,76376.03
2022-11-01T11:46:13.270Z,76358.13
2022-11-01T11:48:52.237Z,76391.91
2022-11-01T11:51:23.106Z,76407.81
2022-11-01T11:54:32.311Z,76407.81
2022-11-01T11:57:22.890Z,76411.78
2022-11-01T11:59:59.462Z,76427.69
2022-11-01T12:02:34.677Z,76437.63
2022-11-01T12:05:23.712Z,76455.50
2022-11-01T12:07:53.094Z,76455.50
2022-11-01T12:10:45.530Z,76473.38
2022-11-01T12:13:27.282Z,76467.44
2022-11-01T12:16:20.340Z,76471.41
2022-11-01T12:18:48.135Z,76467.44
2022-11-01T12:21:22.746Z,76467.44
2022-11-01T12:23:53.696Z,76467.44
2022-11-01T12:26:23.632Z,76477.38
2022-11-01T12:29:31.796Z,76479.34
2022-11-01T12:32:06.409Z,76475.38
2022-11-01T12:34:39.779Z,76491.28
2022-11-01T12:37:26.284Z,76481.34
2022-11-01T12:40:05.456Z,76489.28
2022-11-01T12:42:41.226Z,76481.34
2022-11-01T12:45:19.563Z,76495.25
2022-11-01T12:47:52.394Z,76497.22
2022-11-01T12:50:24.721Z,76479.34
2022-11-01T12:52:58.594Z,76477.38
2022-11-01T12:55:45.344Z,76479.34
2022-11-01T12:58:18.757Z,76477.38
2022-11-01T13:01:12.718Z,76471.41
2022-11-01T13:04:05.185Z,76465.44
2022-11-01T13:06:56.104Z,76473.38
2022-11-01T13:09:51.874Z,76489.28
2022-11-01T13:12:51.468Z,76495.25
2022-11-01T13:15:27.400Z,76483.31
2022-11-01T13:18:00.778Z,76469.41
2022-11-01T13:20:42.869Z,76477.38
2022-11-01T13:23:23.619Z,76471.41
2022-11-01T13:26:12.893Z,76461.47
2022-11-01T13:28:39.323Z,76447.56
2022-11-01T13:31:26.449Z,76441.59
2022-11-01T13:34:16.173Z,76433.66
2022-11-01T13:37:05.275Z,76437.63
2022-11-01T13:39:44.348Z,76435.63
2022-11-01T13:42:16.289Z,76437.63
2022-11-01T13:44:48.985Z,76431.66
2022-11-01T13:47:30.651Z,76415.75
2022-11-01T13:50:16.988Z,76421.72
2022-11-01T13:52:55.643Z,76421.72
2022-11-01T13:55:39.025Z,76421.72
2022-11-01T13:58:06.853Z,76405.81
2022-11-01T14:00:39.321Z,76403.84
2022-11-01T14:03:35.651Z,76378.00
2022-11-01T14:06:11.241Z,76360.13
2022-11-01T14:08:42.431Z,76364.09
2022-11-01T14:11:32.766Z,76383.97
2022-11-01T14:13:59.536Z,76407.81
2022-11-01T14:16:28.026Z,76433.66
2022-11-01T14:19:03.808Z,76439.59
2022-11-01T14:21:39.971Z,76475.38
2022-11-01T14:24:07.717Z,76487.28
2022-11-01T14:26:36.944Z,76501.22
2022-11-01T14:29:09.784Z,76517.09
2022-11-01T14:31:37.102Z,76540.94
2022-11-01T14:34:10.073Z,76552.88
2022-11-01T14:36:41.659Z,76550.88
2022-11-01T14:39:18.237Z,76570.75
2022-11-01T14:41:50.183Z,76584.66
2022-11-01T14:44:43.537Z,76596.59
2022-11-01T14:47:27.575Z,76582.69
2022-11-01T14:49:59.021Z,76600.56
2022-11-01T14:52:35.879Z,76606.53
2022-11-01T14:55:24.975Z,76588.63
2022-11-01T14:58:06.763Z,76576.72
2022-11-01T15:00:33.312Z,76576.72
2022-11-01T15:03:04.625Z,76596.59
2022-11-01T15:05:31.201Z,76618.44
2022-11-01T15:07:59.409Z,76616.47
2022-11-01T15:10:27.400Z,76608.50
2022-11-01T15:12:58.095Z,76624.41
2022-11-01T15:15:27.944Z,76638.31
2022-11-01T15:21:47.157Z,76664.16
2022-11-01T15:24:26.001Z,76682.03
2022-11-01T15:26:53.733Z,76690.00
2022-11-01T15:29:23.510Z,76691.97
2022-11-01T15:32:01.464Z,76711.84
2022-11-01T15:34:30.416Z,76727.75
2022-11-01T15:36:58.487Z,76723.78
2022-11-01T15:39:29.507Z,76737.69
2022-11-01T15:41:57.015Z,76757.56
2022-11-01T15:44:46.270Z,76761.53
2022-11-01T15:47:20.572Z,76779.41
2022-11-01T15:50:06.658Z,76797.31
2022-11-01T15:52:35.697Z,76811.22
2022-11-01T15:55:17.218Z,76819.16
2022-11-01T15:57:52.219Z,76833.06
2022-11-01T16:00:22.363Z,76841.03
2022-11-01T16:11:39.200Z,76878.78
2022-11-01T16:14:18.750Z,76892.69
2022-11-01T16:16:56.508Z,76898.66
2022-11-01T16:19:27.939Z,76908.59
2022-11-01T16:21:54.477Z,76918.53
2022-11-01T16:24:21.932Z,76922.50
2022-11-01T16:27:12.171Z,76934.44
2022-11-01T16:29:42.669Z,76940.41
2022-11-01T16:32:27.514Z,76944.38
2022-11-01T16:34:55.528Z,76956.28
2022-11-01T16:37:24.807Z,76968.22
2022-11-01T16:39:52.354Z,76978.16
2022-11-01T16:42:19.502Z,76990.06
2022-11-01T16:44:49.453Z,76988.09
2022-11-01T16:47:17.181Z,76996.03
2022-11-01T16:49:52.514Z,77007.97
2022-11-01T16:52:19.297Z,77013.94
2022-11-01T16:54:51.216Z,77023.88
2022-11-01T16:57:25.925Z,77031.81
2022-11-01T16:59:54.568Z,77033.81
2022-11-01T17:02:23.131Z,77047.72
2022-11-01T17:04:56.388Z,77043.75
2022-11-01T17:07:27.859Z,77047.72
2022-11-01T17:09:54.517Z,77051.69
2022-11-01T17:12:21.677Z,77059.63
2022-11-01T17:14:48.801Z,77069.56
2022-11-01T17:17:19.159Z,77071.56
2022-11-01T17:19:50.170Z,77083.50
2022-11-01T17:22:23.115Z,77089.44
2022-11-01T17:24:49.734Z,77099.38
2022-11-01T17:27:18.646Z,77097.41
2022-11-01T17:29:45.126Z,77105.34
2022-11-01T17:32:12.483Z,77111.31
2022-11-01T17:34:39.301Z,77115.28
2022-11-01T17:37:06.388Z,77119.25
2022-11-01T17:39:33.033Z,77103.38
2022-11-01T17:41:59.500Z,77121.25
2022-11-01T17:44:26.096Z,77127.22
2022-11-01T17:46:52.972Z,77137.16
2022-11-01T17:49:21.709Z,77143.13
2022-11-01T17:51:53.281Z,77151.06
2022-11-01T17:54:22.183Z,77151.06
2022-11-01T17:56:50.476Z,77151.06
2022-11-01T18:09:48.237Z,77186.84
2022-11-01T18:12:37.644Z,77194.78
2022-11-01T18:15:15.410Z,77200.75
2022-11-01T18:18:05.743Z,77208.69
2022-11-01T18:20:52.878Z,77206.72
2022-11-01T18:23:22.810Z,77212.69
2022-11-01T18:25:50.781Z,77220.63
2022-11-01T18:28:19.578Z,77226.59
2022-11-01T18:30:51.087Z,77234.53
2022-11-01T18:33:32.847Z,77240.50
2022-11-01T18:36:06.400Z,77240.50
2022-11-01T18:38:40.185Z,77244.47
2022-11-01T18:41:13.104Z,77242.50
2022-11-01T18:43:40.669Z,77254.41
2022-11-01T18:46:27.664Z,77254.41
2022-11-01T18:48:59.956Z,77258.38
2022-11-01T18:51:29.659Z,77264.34
2022-11-01T18:54:09.796Z,77262.38
2022-11-01T18:56:51.822Z,77266.34
2022-11-01T18:59:31.416Z,77274.28
2022-11-01T19:02:12.517Z,77280.25
2022-11-01T19:04:42.401Z,77288.22
2022-11-01T19:07:14.956Z,77294.16
2022-11-01T19:09:45.639Z,77294.16
2022-11-01T19:12:17.560Z,77306.09
2022-11-01T19:14:57.544Z,77308.09
2022-11-01T19:17:27.082Z,77316.03
2022-11-01T19:19:54.740Z,77320.00
2022-11-01T19:22:33.082Z,77318.03
2022-11-01T19:25:01.674Z,77298.13
2022-11-01T19:27:28.794Z,77310.06
2022-11-01T19:29:58.261Z,77316.03
2022-11-01T19:32:26.092Z,77318.03
2022-11-01T19:34:52.992Z,77325.97
2022-11-01T19:37:25.453Z,77333.91
2022-11-01T19:39:56.220Z,77341.88
2022-11-01T19:42:26.424Z,77355.78
2022-11-01T19:44:58.251Z,77367.72
2022-11-01T19:47:27.917Z,77373.66
2022-11-01T19:49:59.439Z,77375.66
2022-11-01T19:52:36.291Z,77387.59
2022-11-01T19:55:27.854Z,77393.56
2022-11-01T19:57:54.335Z,77401.50
2022-11-01T20:00:22.749Z,77409.44
2022-11-01T20:02:52.111Z,77413.44
2022-11-01T20:05:34.627Z,77421.38
2022-11-01T20:08:21.880Z,77431.31
2022-11-01T20:10:48.542Z,77439.25
2022-11-01T20:13:15.120Z,77437.28
2022-11-01T20:15:42.117Z,77433.31
2022-11-01T20:18:08.903Z,77441.25
2022-11-01T20:20:35.760Z,77441.25
2022-11-01T20:23:24.610Z,77443.25
2022-11-01T20:25:48.865Z,77453.19
2022-11-01T20:28:15.303Z,77451.19
2022-11-01T20:30:41.786Z,77459.13
2022-11-01T20:33:08.274Z,77467.09
2022-11-01T20:35:34.772Z,77469.09
2022-11-01T20:38:01.227Z,77463.13
2022-11-01T20:40:28.000Z,77467.09
2022-11-01T20:42:54.747Z,77477.03
2022-11-01T20:45:21.288Z,77483.00
2022-11-01T20:47:47.730Z,77490.94
2022-11-01T20:50:16.258Z,77498.91
2022-11-01T20:52:43.477Z,77506.84
2022-11-01T20:55:11.829Z,77510.81
2022-11-01T20:57:38.886Z,77510.81
2022-11-01T21:00:06.787Z,77522.75
2022-11-01T21:02:33.288Z,77522.75
2022-11-01T21:05:02.884Z,77522.75
2022-11-01T21:07:31.170Z,77524.72
2022-11-01T21:09:57.772Z,77528.72
2022-11-01T21:12:47.655Z,77528.72
2022-11-01T21:15:26.324Z,77526.72
2022-11-01T21:18:01.422Z,77532.69
2022-11-01T21:20:28.255Z,77534.69
2022-11-01T21:23:16.409Z,77540.63
2022-11-01T21:25:46.401Z,77538.66
2022-11-01T21:28:35.392Z,77538.66
2022-11-01T21:31:26.975Z,77548.59
2022-11-01T21:34:24.507Z,77550.56
2022-11-01T21:36:52.134Z,77552.56
2022-11-01T21:39:28.756Z,77560.50
2022-11-01T21:42:27.300Z,77560.50
2022-11-01T21:44:55.857Z,77564.50
2022-11-01T21:47:24.979Z,77564.50
2022-11-01T21:49:51.874Z,77568.47
2022-11-01T21:52:21.258Z,77564.50
2022-11-01T21:54:48.350Z,77550.56
2022-11-01T21:57:16.024Z,77550.56
2022-11-01T21:59:43.178Z,77562.50
2022-11-01T22:02:12.357Z,77558.53
2022-11-01T22:04:39.144Z,77568.47
2022-11-01T22:07:07.670Z,77574.44
2022-11-01T22:09:34.746Z,77584.38
2022-11-01T22:12:01.374Z,77580.41
2022-11-01T22:14:28.060Z,77584.38
2022-11-01T22:16:54.529Z,77578.41
2022-11-01T22:19:21.162Z,77558.53
2022-11-01T22:21:47.664Z,77568.47
2022-11-01T22:24:14.203Z,77576.41
2022-11-01T22:26:40.666Z,77574.44
2022-11-01T22:29:07.092Z,77584.38
2022-11-01T22:31:33.604Z,77600.28
2022-11-01T22:34:01.322Z,77604.25
2022-11-01T22:36:34.683Z,77610.22
2022-11-01T22:39:06.629Z,77610.22
2022-11-01T22:41:35.124Z,77616.16
2022-11-01T22:44:04.357Z,77626.13
2022-11-01T22:46:59.231Z,77626.13
2022-11-01T22:49:49.529Z,77636.06
2022-11-01T22:52:29.593Z,77636.06
2022-11-01T22:55:11.395Z,77634.06
2022-11-01T22:57:48.410Z,77642.00
2022-11-01T23:00:31.549Z,77646.00
2022-11-01T23:03:19.692Z,77647.97
2022-11-01T23:05:46.894Z,77649.97
2022-11-01T23:08:33.282Z,77649.97
2022-11-01T23:11:00.938Z,77647.97
2022-11-01T23:13:50.106Z,77657.91
2022-11-01T23:16:24.842Z,77653.94
2022-11-01T23:18:53.129Z,77649.97
2022-11-01T23:21:21.442Z,77655.94
2022-11-01T23:23:48.496Z,77651.94
2022-11-01T23:26:17.582Z,77649.97
2022-11-01T23:28:47.235Z,77655.94
2022-11-01T23:31:14.146Z,77665.88
2022-11-01T23:33:48.641Z,77673.81
2022-11-01T23:36:36.391Z,77673.81
2022-11-01T23:39:04.460Z,77677.78
2022-11-01T23:41:36.915Z,77679.78
2022-11-01T23:44:16.579Z,77683.75
2022-11-01T23:46:43.142Z,77689.72
2022-11-01T23:49:18.070Z,77693.69
2022-11-01T23:51:45.013Z,77699.66
2022-11-01T23:54:22.229Z,77695.69
2022-11-01T23:56:48.673Z,77703.63
2022-11-01T23:59:15.815Z,77695.69
